CYQT

Thunder Bay Airport

Thunder Bay, , Canada
METAR CYQT 241200Z 00000KT 15SM SKC M18/M19 A3018 RMK SLP237
Observed Flight Rules
Feb-24 @ 12:00 UTC (21 minutes ago) Visual Flight Rules
Wind Visibility Clouds
Calm 15 miles
  • Clear skies
Temperatures Readings
Current -18°C / 0°F
Dewpoint -19°C / -2°F
Humidity 92%
Altimeter 30.18" Hg
Pressure 1023.7 hPa
Elevation 199
METAR CYQT 241200Z 00000KT 15SM SKC M18/M19 A3018 RMK SLP237
Observed Flight Rules
Feb-24 @ 12:00 UTC
(21 minutes ago)
VFR
Wind Visibility
Calm 15 miles
Clouds
  • Clear skies
Temperature Dewpoint
-18°C / 0°F -19°C / -2°F
Humidity Altimeter Pressure
92% 30.18" Hg 1023.7 hPa